Briefing drone pour Pougues-les-eaux

Rechercher une autre localisation

Conditions de vol :


Nous sommes le : Vendredi 18 septembre 2020
Il est 10:32 UTC (12:32 LT)

Lever de soleil : 05:03 UTC (07:03 LT)
Coucher de soleil : 18:19 UTC (20:19 LT)

Météo

L'essentiel des conditions de vol

VIGILANCE MÉTÉO FRANCE - Nièvre (58)
Pas de vigilances particulieres
CARTES DES FRONTS
METAR de LFQG
LFQG 181000Z AUTO 11010KT 080V140 CAVOK 27/15 Q1016

Date d'émission: 18/09/2020
Heure d'émission: 10:00 UTC
Vent: 110° (variable du 080° au 140°) pour 10 KT (19 km/h)
Visibilité horizontale: > 10 km
Plafond : Plafond et visibilité OK (CAVOK)
Température: 27 °C
Point de rosée: 15 °C
Humidité: 48%
Pression (QNH): 1016 hPa
Prévision 24h pour Nevers (7 km)
Vent : 130° pour 4 KT (14 km/h)
Temperature Maxi: 22 °C
Temperature Min: 22 °C
Humidité : 54%
Condition : Couvert



Warning: count(): Parameter must be an array or an object that implements Countable in /homepages/6/d509196549/htdocs/droneoxygene/briefing.php on line 743
WEBCAM POUR POUGUES-LES-EAUX

Réglementation

Voler en sécurité

CARTES AERONAUTIQUE 1/500.000
CARTES VAC (LFQG)
SUP AIP




Chargement des AIP...
NOTAM (POUGUES-LES-EAUX + Terrain à proximité / FIR )




Chargement des NOTAMS...
CONTACT PREFECTURE 58


Avertissement : Les données mises à disposition sont indicatives. Oxygène Drone ne pourra être tenu responsable de dégâts causés aux biens et aux personnes.